sensor_id;sensor_type;location;lat;lon;timestamp;P1;durP1;ratioP1;P2;durP2;ratioP2
44189;SDS011;29856;52.144;5.430;2023-03-14T00:00:32;22.17;;;5.32;;
44189;SDS011;29856;52.144;5.430;2023-03-14T00:02:57;21.83;;;5.82;;
44189;SDS011;29856;52.144;5.430;2023-03-14T00:05:22;18.13;;;5.32;;
44189;SDS011;29856;52.144;5.430;2023-03-14T00:07:48;21.67;;;5.63;;
44189;SDS011;29856;52.144;5.430;2023-03-14T00:10:14;25.25;;;6.20;;
44189;SDS011;29856;52.144;5.430;2023-03-14T00:12:43;17.73;;;4.93;;
44189;SDS011;29856;52.144;5.430;2023-03-14T00:15:09;18.88;;;4.70;;
44189;SDS011;29856;52.144;5.430;2023-03-14T00:17:36;17.42;;;4.55;;
44189;SDS011;29856;52.144;5.430;2023-03-14T00:20:02;21.02;;;5.30;;
44189;SDS011;29856;52.144;5.430;2023-03-14T00:22:30;24.85;;;5.85;;
44189;SDS011;29856;52.144;5.430;2023-03-14T00:24:56;33.55;;;5.93;;
44189;SDS011;29856;52.144;5.430;2023-03-14T00:27:21;25.05;;;6.20;;
44189;SDS011;29856;52.144;5.430;2023-03-14T00:29:47;24.05;;;5.32;;
44189;SDS011;29856;52.144;5.430;2023-03-14T00:32:21;22.58;;;4.85;;
44189;SDS011;29856;52.144;5.430;2023-03-14T00:34:47;26.48;;;5.22;;
44189;SDS011;29856;52.144;5.430;2023-03-14T00:37:12;28.85;;;5.50;;
44189;SDS011;29856;52.144;5.430;2023-03-14T00:39:38;18.85;;;4.38;;
44189;SDS011;29856;52.144;5.430;2023-03-14T00:42:04;25.10;;;4.20;;
44189;SDS011;29856;52.144;5.430;2023-03-14T00:44:29;24.65;;;3.72;;
44189;SDS011;29856;52.144;5.430;2023-03-14T00:46:55;24.23;;;5.15;;
44189;SDS011;29856;52.144;5.430;2023-03-14T00:49:20;16.27;;;4.15;;
44189;SDS011;29856;52.144;5.430;2023-03-14T00:51:46;16.95;;;3.90;;
44189;SDS011;29856;52.144;5.430;2023-03-14T00:54:11;20.05;;;3.38;;
44189;SDS011;29856;52.144;5.430;2023-03-14T00:56:37;18.17;;;4.68;;
44189;SDS011;29856;52.144;5.430;2023-03-14T00:59:02;15.32;;;2.67;;
44189;SDS011;29856;52.144;5.430;2023-03-14T01:01:28;16.35;;;3.25;;
44189;SDS011;29856;52.144;5.430;2023-03-14T01:03:54;18.00;;;2.80;;
44189;SDS011;29856;52.144;5.430;2023-03-14T01:06:21;13.40;;;3.38;;
44189;SDS011;29856;52.144;5.430;2023-03-14T01:08:49;16.67;;;3.55;;
44189;SDS011;29856;52.144;5.430;2023-03-14T01:11:16;20.98;;;3.70;;
44189;SDS011;29856;52.144;5.430;2023-03-14T01:13:43;14.02;;;3.17;;
44189;SDS011;29856;52.144;5.430;2023-03-14T01:16:10;12.02;;;3.17;;
44189;SDS011;29856;52.144;5.430;2023-03-14T01:18:37;16.80;;;3.50;;
44189;SDS011;29856;52.144;5.430;2023-03-14T01:21:08;12.52;;;2.83;;
44189;SDS011;29856;52.144;5.430;2023-03-14T01:23:36;15.23;;;2.67;;
44189;SDS011;29856;52.144;5.430;2023-03-14T01:26:02;14.52;;;3.10;;
44189;SDS011;29856;52.144;5.430;2023-03-14T01:28:28;10.93;;;2.63;;
44189;SDS011;29856;52.144;5.430;2023-03-14T01:30:53;12.88;;;2.28;;
44189;SDS011;29856;52.144;5.430;2023-03-14T01:33:19;13.32;;;2.65;;
44189;SDS011;29856;52.144;5.430;2023-03-14T01:35:44;15.48;;;3.17;;
44189;SDS011;29856;52.144;5.430;2023-03-14T01:38:09;9.60;;;2.42;;
44189;SDS011;29856;52.144;5.430;2023-03-14T01:40:41;18.45;;;2.75;;
44189;SDS011;29856;52.144;5.430;2023-03-14T01:43:18;13.35;;;2.67;;
44189;SDS011;29856;52.144;5.430;2023-03-14T01:48:32;16.38;;;2.80;;
44189;SDS011;29856;52.144;5.430;2023-03-14T01:51:08;11.73;;;2.58;;
44189;SDS011;29856;52.144;5.430;2023-03-14T01:53:37;12.00;;;2.30;;
44189;SDS011;29856;52.144;5.430;2023-03-14T01:56:05;14.35;;;2.63;;
44189;SDS011;29856;52.144;5.430;2023-03-14T01:58:31;10.23;;;2.63;;
44189;SDS011;29856;52.144;5.430;2023-03-14T02:00:58;13.38;;;2.58;;
44189;SDS011;29856;52.144;5.430;2023-03-14T02:03:26;16.05;;;2.78;;
44189;SDS011;29856;52.144;5.430;2023-03-14T02:05:52;11.35;;;2.40;;
44189;SDS011;29856;52.144;5.430;2023-03-14T02:08:22;15.20;;;2.45;;
44189;SDS011;29856;52.144;5.430;2023-03-14T02:10:48;17.88;;;3.45;;
44189;SDS011;29856;52.144;5.430;2023-03-14T02:13:16;12.90;;;2.30;;
44189;SDS011;29856;52.144;5.430;2023-03-14T02:15:43;13.65;;;3.17;;
44189;SDS011;29856;52.144;5.430;2023-03-14T02:18:08;12.98;;;3.15;;
44189;SDS011;29856;52.144;5.430;2023-03-14T02:26:08;12.50;;;2.30;;
44189;SDS011;29856;52.144;5.430;2023-03-14T02:28:37;13.00;;;2.63;;
44189;SDS011;29856;52.144;5.430;2023-03-14T02:31:03;8.32;;;1.80;;
44189;SDS011;29856;52.144;5.430;2023-03-14T02:33:29;15.27;;;2.78;;
44189;SDS011;29856;52.144;5.430;2023-03-14T02:35:56;12.00;;;2.03;;
44189;SDS011;29856;52.144;5.430;2023-03-14T02:41:00;9.15;;;2.25;;
44189;SDS011;29856;52.144;5.430;2023-03-14T02:43:26;12.88;;;2.22;;
44189;SDS011;29856;52.144;5.430;2023-03-14T02:45:52;16.50;;;3.10;;
44189;SDS011;29856;52.144;5.430;2023-03-14T02:50:45;8.98;;;2.58;;
44189;SDS011;29856;52.144;5.430;2023-03-14T02:53:17;10.57;;;2.17;;
44189;SDS011;29856;52.144;5.430;2023-03-14T02:55:46;13.13;;;3.15;;
44189;SDS011;29856;52.144;5.430;2023-03-14T02:58:12;18.05;;;3.30;;
44189;SDS011;29856;52.144;5.430;2023-03-14T03:00:38;14.02;;;2.80;;
44189;SDS011;29856;52.144;5.430;2023-03-14T03:03:03;12.27;;;3.00;;
44189;SDS011;29856;52.144;5.430;2023-03-14T03:05:29;9.52;;;2.33;;
44189;SDS011;29856;52.144;5.430;2023-03-14T03:07:54;10.40;;;2.35;;
44189;SDS011;29856;52.144;5.430;2023-03-14T03:10:20;11.15;;;2.88;;
44189;SDS011;29856;52.144;5.430;2023-03-14T03:12:45;10.82;;;2.80;;
44189;SDS011;29856;52.144;5.430;2023-03-14T03:15:11;11.05;;;2.75;;
44189;SDS011;29856;52.144;5.430;2023-03-14T03:17:36;11.98;;;2.42;;
44189;SDS011;29856;52.144;5.430;2023-03-14T03:20:02;10.10;;;2.67;;
44189;SDS011;29856;52.144;5.430;2023-03-14T03:22:28;13.75;;;3.92;;
44189;SDS011;29856;52.144;5.430;2023-03-14T03:24:53;13.48;;;3.17;;
44189;SDS011;29856;52.144;5.430;2023-03-14T03:27:19;10.63;;;3.10;;
44189;SDS011;29856;52.144;5.430;2023-03-14T03:29:44;18.10;;;3.58;;
44189;SDS011;29856;52.144;5.430;2023-03-14T03:32:10;15.98;;;3.08;;
44189;SDS011;29856;52.144;5.430;2023-03-14T03:34:35;15.57;;;2.72;;
44189;SDS011;29856;52.144;5.430;2023-03-14T03:37:00;10.70;;;2.40;;
44189;SDS011;29856;52.144;5.430;2023-03-14T03:39:26;11.00;;;3.08;;
44189;SDS011;29856;52.144;5.430;2023-03-14T03:41:51;12.35;;;2.65;;
44189;SDS011;29856;52.144;5.430;2023-03-14T03:44:17;13.98;;;2.92;;
44189;SDS011;29856;52.144;5.430;2023-03-14T03:46:42;16.27;;;2.83;;
44189;SDS011;29856;52.144;5.430;2023-03-14T03:49:08;20.08;;;3.40;;
44189;SDS011;29856;52.144;5.430;2023-03-14T03:51:33;13.43;;;2.95;;
44189;SDS011;29856;52.144;5.430;2023-03-14T03:53:59;21.45;;;3.63;;
44189;SDS011;29856;52.144;5.430;2023-03-14T03:56:24;12.25;;;2.67;;
44189;SDS011;29856;52.144;5.430;2023-03-14T03:58:50;16.75;;;3.42;;
44189;SDS011;29856;52.144;5.430;2023-03-14T04:01:15;14.98;;;2.78;;
44189;SDS011;29856;52.144;5.430;2023-03-14T04:03:41;16.80;;;2.75;;
44189;SDS011;29856;52.144;5.430;2023-03-14T04:06:07;14.13;;;3.08;;
44189;SDS011;29856;52.144;5.430;2023-03-14T04:08:35;15.00;;;2.78;;
44189;SDS011;29856;52.144;5.430;2023-03-14T04:11:01;17.50;;;3.70;;
44189;SDS011;29856;52.144;5.430;2023-03-14T04:13:27;14.52;;;3.10;;
44189;SDS011;29856;52.144;5.430;2023-03-14T04:15:53;10.13;;;2.50;;
44189;SDS011;29856;52.144;5.430;2023-03-14T04:18:20;17.42;;;3.05;;
44189;SDS011;29856;52.144;5.430;2023-03-14T04:20:50;13.50;;;2.88;;
44189;SDS011;29856;52.144;5.430;2023-03-14T04:23:17;15.65;;;2.75;;
44189;SDS011;29856;52.144;5.430;2023-03-14T04:25:42;16.25;;;3.83;;
44189;SDS011;29856;52.144;5.430;2023-03-14T04:28:08;15.35;;;2.78;;
44189;SDS011;29856;52.144;5.430;2023-03-14T04:30:33;13.10;;;2.60;;
44189;SDS011;29856;52.144;5.430;2023-03-14T04:32:59;13.57;;;2.50;;
44189;SDS011;29856;52.144;5.430;2023-03-14T04:35:24;9.88;;;2.50;;
44189;SDS011;29856;52.144;5.430;2023-03-14T04:37:50;11.80;;;2.67;;
44189;SDS011;29856;52.144;5.430;2023-03-14T04:40:16;17.02;;;3.28;;
44189;SDS011;29856;52.144;5.430;2023-03-14T04:42:41;14.68;;;2.80;;
44189;SDS011;29856;52.144;5.430;2023-03-14T04:45:07;13.75;;;2.85;;
44189;SDS011;29856;52.144;5.430;2023-03-14T04:47:33;11.52;;;2.90;;
44189;SDS011;29856;52.144;5.430;2023-03-14T04:49:58;8.88;;;2.40;;
44189;SDS011;29856;52.144;5.430;2023-03-14T04:52:24;11.25;;;2.63;;
44189;SDS011;29856;52.144;5.430;2023-03-14T04:54:50;18.05;;;3.50;;
44189;SDS011;29856;52.144;5.430;2023-03-14T04:57:16;11.35;;;2.80;;
44189;SDS011;29856;52.144;5.430;2023-03-14T04:59:41;12.77;;;2.75;;
44189;SDS011;29856;52.144;5.430;2023-03-14T05:02:07;12.20;;;3.40;;
44189;SDS011;29856;52.144;5.430;2023-03-14T05:04:32;12.05;;;2.90;;
44189;SDS011;29856;52.144;5.430;2023-03-14T05:06:58;11.82;;;2.83;;
44189;SDS011;29856;52.144;5.430;2023-03-14T05:09:26;10.95;;;2.33;;
44189;SDS011;29856;52.144;5.430;2023-03-14T05:11:52;10.82;;;2.60;;
44189;SDS011;29856;52.144;5.430;2023-03-14T05:14:17;12.52;;;2.80;;
44189;SDS011;29856;52.144;5.430;2023-03-14T05:16:43;11.15;;;3.05;;
44189;SDS011;29856;52.144;5.430;2023-03-14T05:19:09;12.35;;;3.03;;
44189;SDS011;29856;52.144;5.430;2023-03-14T05:21:35;14.65;;;3.38;;
44189;SDS011;29856;52.144;5.430;2023-03-14T05:24:00;12.02;;;2.78;;
44189;SDS011;29856;52.144;5.430;2023-03-14T05:26:26;11.13;;;2.90;;
44189;SDS011;29856;52.144;5.430;2023-03-14T05:28:51;16.50;;;3.05;;
44189;SDS011;29856;52.144;5.430;2023-03-14T05:31:17;9.80;;;2.65;;
44189;SDS011;29856;52.144;5.430;2023-03-14T05:33:42;11.85;;;2.97;;
44189;SDS011;29856;52.144;5.430;2023-03-14T05:36:08;8.80;;;2.35;;
44189;SDS011;29856;52.144;5.430;2023-03-14T05:38:33;10.02;;;3.00;;
44189;SDS011;29856;52.144;5.430;2023-03-14T05:40:59;9.27;;;2.90;;
44189;SDS011;29856;52.144;5.430;2023-03-14T05:43:25;11.07;;;3.00;;
44189;SDS011;29856;52.144;5.430;2023-03-14T05:45:50;13.93;;;3.17;;
44189;SDS011;29856;52.144;5.430;2023-03-14T05:48:16;10.55;;;2.90;;
44189;SDS011;29856;52.144;5.430;2023-03-14T05:50:41;11.45;;;3.50;;
44189;SDS011;29856;52.144;5.430;2023-03-14T05:53:07;12.00;;;3.60;;
44189;SDS011;29856;52.144;5.430;2023-03-14T05:55:32;13.65;;;3.80;;
44189;SDS011;29856;52.144;5.430;2023-03-14T05:57:58;12.15;;;3.50;;
44189;SDS011;29856;52.144;5.430;2023-03-14T06:00:23;9.43;;;3.70;;
44189;SDS011;29856;52.144;5.430;2023-03-14T06:02:49;8.73;;;3.95;;
44189;SDS011;29856;52.144;5.430;2023-03-14T06:05:14;11.15;;;4.85;;
44189;SDS011;29856;52.144;5.430;2023-03-14T06:07:40;9.93;;;4.15;;
44189;SDS011;29856;52.144;5.430;2023-03-14T06:10:05;13.98;;;4.75;;
44189;SDS011;29856;52.144;5.430;2023-03-14T06:12:31;9.88;;;4.47;;
44189;SDS011;29856;52.144;5.430;2023-03-14T06:14:57;14.10;;;4.72;;
44189;SDS011;29856;52.144;5.430;2023-03-14T06:17:22;11.25;;;5.20;;
44189;SDS011;29856;52.144;5.430;2023-03-14T06:19:48;13.70;;;5.32;;
44189;SDS011;29856;52.144;5.430;2023-03-14T06:22:14;12.25;;;6.40;;
44189;SDS011;29856;52.144;5.430;2023-03-14T06:24:39;10.32;;;5.50;;
44189;SDS011;29856;52.144;5.430;2023-03-14T06:27:05;8.98;;;5.30;;
44189;SDS011;29856;52.144;5.430;2023-03-14T06:29:30;13.60;;;6.00;;
44189;SDS011;29856;52.144;5.430;2023-03-14T06:31:56;10.98;;;5.22;;
44189;SDS011;29856;52.144;5.430;2023-03-14T06:34:21;12.57;;;6.53;;
44189;SDS011;29856;52.144;5.430;2023-03-14T06:36:47;11.88;;;5.80;;
44189;SDS011;29856;52.144;5.430;2023-03-14T06:39:12;8.25;;;5.60;;
44189;SDS011;29856;52.144;5.430;2023-03-14T06:41:38;12.98;;;6.18;;
44189;SDS011;29856;52.144;5.430;2023-03-14T06:44:04;12.88;;;6.68;;
44189;SDS011;29856;52.144;5.430;2023-03-14T06:46:30;11.38;;;6.10;;
44189;SDS011;29856;52.144;5.430;2023-03-14T06:48:56;6.78;;;3.60;;
44189;SDS011;29856;52.144;5.430;2023-03-14T06:51:21;2.95;;;1.23;;
44189;SDS011;29856;52.144;5.430;2023-03-14T06:53:47;5.55;;;1.60;;
44189;SDS011;29856;52.144;5.430;2023-03-14T06:56:12;2.90;;;0.80;;
44189;SDS011;29856;52.144;5.430;2023-03-14T06:58:38;7.75;;;0.95;;
44189;SDS011;29856;52.144;5.430;2023-03-14T07:01:04;2.83;;;0.90;;
44189;SDS011;29856;52.144;5.430;2023-03-14T07:03:29;2.25;;;0.73;;
44189;SDS011;29856;52.144;5.430;2023-03-14T07:05:55;2.83;;;1.10;;
44189;SDS011;29856;52.144;5.430;2023-03-14T07:08:20;3.22;;;0.90;;
44189;SDS011;29856;52.144;5.430;2023-03-14T07:10:46;1.23;;;0.68;;
44189;SDS011;29856;52.144;5.430;2023-03-14T07:13:11;3.05;;;0.80;;
44189;SDS011;29856;52.144;5.430;2023-03-14T07:15:37;3.70;;;1.00;;
44189;SDS011;29856;52.144;5.430;2023-03-14T07:18:02;3.58;;;1.10;;
44189;SDS011;29856;52.144;5.430;2023-03-14T07:20:28;5.55;;;1.30;;
44189;SDS011;29856;52.144;5.430;2023-03-14T07:22:53;2.03;;;1.20;;
44189;SDS011;29856;52.144;5.430;2023-03-14T07:25:19;3.88;;;1.20;;
44189;SDS011;29856;52.144;5.430;2023-03-14T07:27:45;5.97;;;1.30;;
44189;SDS011;29856;52.144;5.430;2023-03-14T07:30:12;4.18;;;0.73;;
44189;SDS011;29856;52.144;5.430;2023-03-14T07:32:38;3.28;;;0.90;;
44189;SDS011;29856;52.144;5.430;2023-03-14T07:35:03;3.58;;;1.00;;
44189;SDS011;29856;52.144;5.430;2023-03-14T07:37:29;2.60;;;0.90;;
44189;SDS011;29856;52.144;5.430;2023-03-14T07:39:55;2.92;;;0.82;;
44189;SDS011;29856;52.144;5.430;2023-03-14T07:42:20;4.75;;;0.68;;
44189;SDS011;29856;52.144;5.430;2023-03-14T07:44:46;5.15;;;1.38;;
44189;SDS011;29856;52.144;5.430;2023-03-14T07:47:11;1.38;;;0.52;;
44189;SDS011;29856;52.144;5.430;2023-03-14T07:49:37;4.65;;;0.80;;
44189;SDS011;29856;52.144;5.430;2023-03-14T07:52:02;4.65;;;0.90;;
44189;SDS011;29856;52.144;5.430;2023-03-14T07:54:28;1.83;;;0.85;;
44189;SDS011;29856;52.144;5.430;2023-03-14T07:56:53;2.15;;;0.65;;
44189;SDS011;29856;52.144;5.430;2023-03-14T07:59:19;3.33;;;0.82;;
44189;SDS011;29856;52.144;5.430;2023-03-14T08:01:45;3.22;;;0.80;;
44189;SDS011;29856;52.144;5.430;2023-03-14T08:04:10;9.13;;;1.20;;
44189;SDS011;29856;52.144;5.430;2023-03-14T08:06:36;7.47;;;1.20;;
44189;SDS011;29856;52.144;5.430;2023-03-14T08:09:02;11.45;;;1.50;;
44189;SDS011;29856;52.144;5.430;2023-03-14T08:11:28;11.55;;;1.98;;
44189;SDS011;29856;52.144;5.430;2023-03-14T08:13:54;19.83;;;2.60;;
44189;SDS011;29856;52.144;5.430;2023-03-14T08:16:19;7.20;;;1.08;;
44189;SDS011;29856;52.144;5.430;2023-03-14T08:18:45;8.52;;;1.20;;
44189;SDS011;29856;52.144;5.430;2023-03-14T08:21:11;4.07;;;1.02;;
44189;SDS011;29856;52.144;5.430;2023-03-14T08:23:36;7.53;;;1.13;;
44189;SDS011;29856;52.144;5.430;2023-03-14T08:26:02;4.90;;;0.93;;
44189;SDS011;29856;52.144;5.430;2023-03-14T08:28:28;4.93;;;0.80;;
44189;SDS011;29856;52.144;5.430;2023-03-14T08:30:54;9.05;;;1.17;;
44189;SDS011;29856;52.144;5.430;2023-03-14T08:33:19;4.00;;;0.82;;
44189;SDS011;29856;52.144;5.430;2023-03-14T08:35:45;6.50;;;0.93;;
44189;SDS011;29856;52.144;5.430;2023-03-14T08:38:10;8.30;;;1.00;;
44189;SDS011;29856;52.144;5.430;2023-03-14T08:40:36;7.25;;;0.73;;
44189;SDS011;29856;52.144;5.430;2023-03-14T08:43:01;2.58;;;0.57;;
44189;SDS011;29856;52.144;5.430;2023-03-14T08:45:27;4.65;;;1.33;;
44189;SDS011;29856;52.144;5.430;2023-03-14T08:47:52;6.85;;;0.65;;
44189;SDS011;29856;52.144;5.430;2023-03-14T08:50:18;3.03;;;0.82;;
44189;SDS011;29856;52.144;5.430;2023-03-14T08:52:43;5.63;;;0.90;;
44189;SDS011;29856;52.144;5.430;2023-03-14T08:55:09;9.90;;;2.15;;
44189;SDS011;29856;52.144;5.430;2023-03-14T08:57:35;11.93;;;2.25;;
44189;SDS011;29856;52.144;5.430;2023-03-14T09:00:00;5.00;;;0.93;;
44189;SDS011;29856;52.144;5.430;2023-03-14T09:02:26;9.45;;;1.60;;
44189;SDS011;29856;52.144;5.430;2023-03-14T09:04:52;9.10;;;1.25;;
44189;SDS011;29856;52.144;5.430;2023-03-14T09:07:18;9.23;;;1.30;;
44189;SDS011;29856;52.144;5.430;2023-03-14T09:09:44;15.52;;;1.63;;
44189;SDS011;29856;52.144;5.430;2023-03-14T09:12:10;11.65;;;1.83;;
44189;SDS011;29856;52.144;5.430;2023-03-14T09:14:35;11.10;;;1.75;;
44189;SDS011;29856;52.144;5.430;2023-03-14T09:17:01;6.65;;;1.50;;
44189;SDS011;29856;52.144;5.430;2023-03-14T09:19:27;12.00;;;1.85;;
44189;SDS011;29856;52.144;5.430;2023-03-14T09:21:53;8.70;;;1.52;;
44189;SDS011;29856;52.144;5.430;2023-03-14T09:24:19;13.32;;;2.83;;
44189;SDS011;29856;52.144;5.430;2023-03-14T09:26:44;10.55;;;2.17;;
44189;SDS011;29856;52.144;5.430;2023-03-14T09:29:10;11.43;;;2.05;;
44189;SDS011;29856;52.144;5.430;2023-03-14T09:31:35;13.18;;;2.55;;
44189;SDS011;29856;52.144;5.430;2023-03-14T09:34:01;18.70;;;3.17;;
44189;SDS011;29856;52.144;5.430;2023-03-14T09:36:26;14.20;;;2.22;;
44189;SDS011;29856;52.144;5.430;2023-03-14T09:38:52;15.23;;;2.15;;
44189;SDS011;29856;52.144;5.430;2023-03-14T09:43:48;27.02;;;2.90;;
44189;SDS011;29856;52.144;5.430;2023-03-14T09:46:25;23.40;;;3.15;;
44189;SDS011;29856;52.144;5.430;2023-03-14T09:48:51;14.27;;;2.30;;
44189;SDS011;29856;52.144;5.430;2023-03-14T09:51:18;19.42;;;2.17;;
44189;SDS011;29856;52.144;5.430;2023-03-14T09:53:46;27.20;;;4.20;;
44189;SDS011;29856;52.144;5.430;2023-03-14T09:56:20;9.82;;;2.45;;
44189;SDS011;29856;52.144;5.430;2023-03-14T09:59:09;22.73;;;2.92;;
44189;SDS011;29856;52.144;5.430;2023-03-14T10:01:38;17.85;;;2.67;;
44189;SDS011;29856;52.144;5.430;2023-03-14T10:04:09;20.15;;;2.85;;
44189;SDS011;29856;52.144;5.430;2023-03-14T10:09:04;19.50;;;3.50;;
44189;SDS011;29856;52.144;5.430;2023-03-14T10:11:30;22.38;;;4.28;;
44189;SDS011;29856;52.144;5.430;2023-03-14T10:16:32;21.55;;;4.18;;
44189;SDS011;29856;52.144;5.430;2023-03-14T10:19:32;16.25;;;2.78;;
44189;SDS011;29856;52.144;5.430;2023-03-14T10:21:52;15.82;;;2.20;;
44189;SDS011;29856;52.144;5.430;2023-03-14T10:26:53;21.30;;;4.30;;
44189;SDS011;29856;52.144;5.430;2023-03-14T10:29:20;22.77;;;3.50;;
44189;SDS011;29856;52.144;5.430;2023-03-14T10:31:59;24.70;;;3.67;;
44189;SDS011;29856;52.144;5.430;2023-03-14T10:34:33;17.45;;;3.50;;
44189;SDS011;29856;52.144;5.430;2023-03-14T10:37:06;15.65;;;2.47;;
44189;SDS011;29856;52.144;5.430;2023-03-14T10:39:46;18.42;;;3.15;;
44189;SDS011;29856;52.144;5.430;2023-03-14T10:42:33;18.77;;;4.00;;
44189;SDS011;29856;52.144;5.430;2023-03-14T10:45:04;23.23;;;3.42;;
44189;SDS011;29856;52.144;5.430;2023-03-14T10:47:51;20.40;;;3.75;;
44189;SDS011;29856;52.144;5.430;2023-03-14T10:50:24;24.30;;;4.10;;
44189;SDS011;29856;52.144;5.430;2023-03-14T10:52:51;16.35;;;2.13;;
44189;SDS011;29856;52.144;5.430;2023-03-14T10:55:18;34.75;;;3.78;;
44189;SDS011;29856;52.144;5.430;2023-03-14T10:57:44;25.35;;;4.25;;
44189;SDS011;29856;52.144;5.430;2023-03-14T11:00:20;20.77;;;3.08;;
44189;SDS011;29856;52.144;5.430;2023-03-14T11:05:57;19.73;;;3.15;;
44189;SDS011;29856;52.144;5.430;2023-03-14T11:11:27;16.55;;;2.28;;
44189;SDS011;29856;52.144;5.430;2023-03-14T11:17:05;24.35;;;2.97;;
44189;SDS011;29856;52.144;5.430;2023-03-14T11:20:12;20.15;;;2.90;;
44189;SDS011;29856;52.144;5.430;2023-03-14T11:34:04;12.05;;;2.22;;
44189;SDS011;29856;52.144;5.430;2023-03-14T11:36:41;22.05;;;2.70;;
44189;SDS011;29856;52.144;5.430;2023-03-14T11:39:19;13.60;;;2.30;;
44189;SDS011;29856;52.144;5.430;2023-03-14T11:41:46;15.32;;;3.25;;
44189;SDS011;29856;52.144;5.430;2023-03-14T11:44:23;9.10;;;2.08;;
44189;SDS011;29856;52.144;5.430;2023-03-14T11:47:12;18.25;;;2.95;;
44189;SDS011;29856;52.144;5.430;2023-03-14T11:49:48;8.13;;;2.05;;
44189;SDS011;29856;52.144;5.430;2023-03-14T11:55:11;10.98;;;2.22;;
44189;SDS011;29856;52.144;5.430;2023-03-14T11:57:43;18.83;;;2.40;;
44189;SDS011;29856;52.144;5.430;2023-03-14T12:00:16;19.52;;;2.50;;
44189;SDS011;29856;52.144;5.430;2023-03-14T12:02:48;12.77;;;1.73;;
44189;SDS011;29856;52.144;5.430;2023-03-14T12:05:38;12.70;;;1.98;;
44189;SDS011;29856;52.144;5.430;2023-03-14T12:10:55;13.05;;;2.03;;
44189;SDS011;29856;52.144;5.430;2023-03-14T12:13:30;15.73;;;2.20;;
44189;SDS011;29856;52.144;5.430;2023-03-14T12:15:59;14.40;;;2.60;;
44189;SDS011;29856;52.144;5.430;2023-03-14T12:18:35;7.70;;;2.25;;
44189;SDS011;29856;52.144;5.430;2023-03-14T12:21:03;8.48;;;1.50;;
44189;SDS011;29856;52.144;5.430;2023-03-14T12:23:50;8.18;;;1.75;;
44189;SDS011;29856;52.144;5.430;2023-03-14T12:26:21;9.18;;;2.17;;
44189;SDS011;29856;52.144;5.430;2023-03-14T12:28:50;12.95;;;2.30;;
44189;SDS011;29856;52.144;5.430;2023-03-14T12:31:46;6.60;;;1.95;;
44189;SDS011;29856;52.144;5.430;2023-03-14T12:39:13;12.43;;;1.60;;
44189;SDS011;29856;52.144;5.430;2023-03-14T12:42:04;11.32;;;1.77;;
44189;SDS011;29856;52.144;5.430;2023-03-14T12:49:45;8.85;;;1.48;;
44189;SDS011;29856;52.144;5.430;2023-03-14T12:55:05;5.90;;;1.20;;
44189;SDS011;29856;52.144;5.430;2023-03-14T12:57:42;3.13;;;1.13;;
44189;SDS011;29856;52.144;5.430;2023-03-14T13:00:18;6.32;;;1.30;;
44189;SDS011;29856;52.144;5.430;2023-03-14T13:02:46;9.43;;;1.77;;
44189;SDS011;29856;52.144;5.430;2023-03-14T13:05:20;11.57;;;2.28;;
44189;SDS011;29856;52.144;5.430;2023-03-14T13:10:20;6.65;;;2.30;;
44189;SDS011;29856;52.144;5.430;2023-03-14T13:15:27;3.05;;;0.85;;
44189;SDS011;29856;52.144;5.430;2023-03-14T13:17:59;7.13;;;1.70;;
44189;SDS011;29856;52.144;5.430;2023-03-14T13:20:29;12.55;;;1.50;;
44189;SDS011;29856;52.144;5.430;2023-03-14T13:23:24;8.40;;;1.92;;
44189;SDS011;29856;52.144;5.430;2023-03-14T13:25:51;6.80;;;1.92;;
44189;SDS011;29856;52.144;5.430;2023-03-14T13:28:17;7.47;;;1.30;;
44189;SDS011;29856;52.144;5.430;2023-03-14T13:30:47;13.48;;;1.90;;
44189;SDS011;29856;52.144;5.430;2023-03-14T13:33:15;14.80;;;1.42;;
44189;SDS011;29856;52.144;5.430;2023-03-14T13:36:00;13.32;;;2.10;;
44189;SDS011;29856;52.144;5.430;2023-03-14T13:38:28;9.60;;;1.92;;
44189;SDS011;29856;52.144;5.430;2023-03-14T13:40:56;9.52;;;1.77;;
44189;SDS011;29856;52.144;5.430;2023-03-14T13:43:25;7.18;;;1.05;;
44189;SDS011;29856;52.144;5.430;2023-03-14T13:46:12;7.15;;;1.88;;
44189;SDS011;29856;52.144;5.430;2023-03-14T13:48:53;5.47;;;1.63;;
44189;SDS011;29856;52.144;5.430;2023-03-14T13:51:23;5.00;;;1.17;;
44189;SDS011;29856;52.144;5.430;2023-03-14T13:53:50;6.38;;;1.73;;
44189;SDS011;29856;52.144;5.430;2023-03-14T13:56:18;8.20;;;1.70;;
44189;SDS011;29856;52.144;5.430;2023-03-14T13:58:45;9.15;;;1.73;;
44189;SDS011;29856;52.144;5.430;2023-03-14T14:01:15;9.65;;;1.52;;
44189;SDS011;29856;52.144;5.430;2023-03-14T14:03:45;10.10;;;2.60;;
44189;SDS011;29856;52.144;5.430;2023-03-14T14:06:46;15.63;;;2.08;;
44189;SDS011;29856;52.144;5.430;2023-03-14T14:11:44;13.85;;;1.50;;
44189;SDS011;29856;52.144;5.430;2023-03-14T14:14:15;11.05;;;2.10;;
44189;SDS011;29856;52.144;5.430;2023-03-14T14:16:54;9.48;;;1.40;;
44189;SDS011;29856;52.144;5.430;2023-03-14T14:19:21;10.07;;;1.48;;
44189;SDS011;29856;52.144;5.430;2023-03-14T14:21:48;7.03;;;1.40;;
44189;SDS011;29856;52.144;5.430;2023-03-14T14:24:15;6.40;;;1.60;;
44189;SDS011;29856;52.144;5.430;2023-03-14T14:26:47;6.90;;;1.38;;
44189;SDS011;29856;52.144;5.430;2023-03-14T14:29:27;6.22;;;1.52;;
44189;SDS011;29856;52.144;5.430;2023-03-14T14:32:10;11.73;;;2.20;;
44189;SDS011;29856;52.144;5.430;2023-03-14T14:34:42;9.38;;;1.95;;
44189;SDS011;29856;52.144;5.430;2023-03-14T14:39:44;4.63;;;1.33;;
44189;SDS011;29856;52.144;5.430;2023-03-14T14:42:13;11.57;;;1.45;;
44189;SDS011;29856;52.144;5.430;2023-03-14T14:44:40;6.72;;;1.33;;
44189;SDS011;29856;52.144;5.430;2023-03-14T14:47:12;3.60;;;1.10;;
44189;SDS011;29856;52.144;5.430;2023-03-14T14:49:39;6.95;;;2.08;;
44189;SDS011;29856;52.144;5.430;2023-03-14T14:52:08;4.75;;;1.25;;
44189;SDS011;29856;52.144;5.430;2023-03-14T14:54:38;3.45;;;1.02;;
44189;SDS011;29856;52.144;5.430;2023-03-14T14:57:24;8.57;;;2.15;;
44189;SDS011;29856;52.144;5.430;2023-03-14T14:59:54;8.50;;;1.65;;
44189;SDS011;29856;52.144;5.430;2023-03-14T15:05:03;14.25;;;1.80;;
44189;SDS011;29856;52.144;5.430;2023-03-14T15:07:29;7.15;;;1.48;;
44189;SDS011;29856;52.144;5.430;2023-03-14T15:09:54;17.00;;;1.92;;
44189;SDS011;29856;52.144;5.430;2023-03-14T15:12:20;9.73;;;1.70;;
44189;SDS011;29856;52.144;5.430;2023-03-14T15:14:45;7.28;;;1.85;;
44189;SDS011;29856;52.144;5.430;2023-03-14T15:17:10;6.47;;;1.52;;
44189;SDS011;29856;52.144;5.430;2023-03-14T15:19:36;8.60;;;1.88;;
44189;SDS011;29856;52.144;5.430;2023-03-14T15:22:02;3.33;;;1.35;;
44189;SDS011;29856;52.144;5.430;2023-03-14T15:24:28;12.07;;;1.67;;
44189;SDS011;29856;52.144;5.430;2023-03-14T15:26:53;12.20;;;1.60;;
44189;SDS011;29856;52.144;5.430;2023-03-14T15:29:19;8.38;;;1.45;;
44189;SDS011;29856;52.144;5.430;2023-03-14T15:31:44;11.60;;;1.58;;
44189;SDS011;29856;52.144;5.430;2023-03-14T15:34:10;4.88;;;1.23;;
44189;SDS011;29856;52.144;5.430;2023-03-14T15:36:35;12.30;;;1.75;;
44189;SDS011;29856;52.144;5.430;2023-03-14T15:39:02;8.48;;;1.80;;
44189;SDS011;29856;52.144;5.430;2023-03-14T15:41:30;5.88;;;1.02;;
44189;SDS011;29856;52.144;5.430;2023-03-14T15:43:55;7.72;;;1.60;;
44189;SDS011;29856;52.144;5.430;2023-03-14T15:46:21;12.43;;;1.40;;
44189;SDS011;29856;52.144;5.430;2023-03-14T15:48:47;8.55;;;1.42;;
44189;SDS011;29856;52.144;5.430;2023-03-14T15:51:13;10.50;;;1.40;;
44189;SDS011;29856;52.144;5.430;2023-03-14T15:53:39;5.13;;;1.73;;
44189;SDS011;29856;52.144;5.430;2023-03-14T15:56:06;11.27;;;1.90;;
44189;SDS011;29856;52.144;5.430;2023-03-14T15:58:35;8.75;;;1.70;;